Milford Square, PA

2:58 AM EST on January 19, 2017 (GMT -0500)
Quakertown

Weather History for KUKT - December, 2013

Change the Weather History Date:

Monday, December 23, 2013

  Actual Average (KABE) Record (KABE)
Temperature  
Mean Temperature 48 °F -  
Max Temperature 57 °F 37 °F 65 °F (2015)
Min Temperature 37 °F 23 °F -3 °F (1960)
Degree Days  
Heating Degree Days 17    
Moisture  
Dew Point 48 °F    
Average Humidity 90    
Maximum Humidity 100    
Minimum Humidity 65    
Precipitation  
Precipitation 0.62 in - - ()
Sea Level Pressure  
Sea Level Pressure 30.03 in    
Wind  
Wind Speed 3 mph (West)    
Max Wind Speed 13 mph    
Max Gust Speed 21 mph    
Visibility 7 miles    
Events      
Averages and records for this station are not official NWS values.
T = Trace of Precipitation, MM = Missing Value Source: NWS Daily Summary

Daily Weather History Graph

Daily Weather History Graph

Search for Another Location

Airport or City:

Trip Planner

Search our weather history database for the weather conditions in past years. The results will help you decide how hot, cold, wet, or windy it might be!

Date:

Astronomy

Dec. 23, 2013 Rise Set
Actual Time 7:22 AM EST 4:39 PM EST
Civil Twilight 6:51 AM EST 5:10 PM EST
Nautical Twilight 6:17 AM EST 5:44 PM EST
Astronomical Twilight 5:43 AM EST 6:17 PM EST
Moon 10:48 PM EST (12/23) 10:45 AM EST (12/23)
Length of Visible Light 10h 18m
Length of Day
9h 17m
Waning Gibbous, 68% of the Moon is Illuminated
Dec 23
Waning Gibbous
Dec 25
Last Quarter
Jan 1
New
Jan 7
First Quarter
Jan 15
Full

Hourly Weather History & Observations

Time (EST) Temp. Windchill Dew Point Humidity Pressure Visibility Wind Dir Wind Speed Gust Speed Precip Events Conditions
12:10 AM 55.4 °F - 53.6 °F 94% 29.97 in 10.0 mi Calm Calm - N/A   Partly Cloudy
12:30 AM 55.4 °F - 53.6 °F 94% 29.97 in 10.0 mi Calm Calm - N/A   Scattered Clouds
12:50 AM 53.6 °F - 53.6 °F 100% 29.97 in 10.0 mi Calm Calm - N/A   Clear
1:10 AM 53.6 °F - 53.6 °F 100% 29.96 in 10.0 mi Calm Calm - N/A   Scattered Clouds
1:30 AM 53.6 °F - 53.6 °F 100% 29.97 in 10.0 mi Calm Calm - N/A   Partly Cloudy
1:50 AM 51.8 °F - 51.8 °F 100% 29.96 in 10.0 mi SE 3.5 mph - N/A   Clear
2:10 AM 53.6 °F - 53.6 °F 100% 29.96 in 10.0 mi Calm Calm - N/A   Mostly Cloudy
2:30 AM 53.6 °F - 53.6 °F 100% 29.98 in 10.0 mi South 3.5 mph - N/A   Overcast
2:50 AM 55.4 °F - 53.6 °F 94% 30.00 in 10.0 mi South 4.6 mph - N/A   Overcast
3:10 AM 57.2 °F - 55.4 °F 94% 29.99 in 10.0 mi South 3.5 mph - N/A   Overcast
3:30 AM 57.2 °F - 55.4 °F 94% 29.98 in 10.0 mi South 3.5 mph - N/A   Overcast
3:50 AM 57.2 °F - 55.4 °F 94% 29.99 in 10.0 mi South 4.6 mph - N/A   Overcast
4:10 AM 57.2 °F - 57.2 °F 100% 29.97 in 8.0 mi South 3.5 mph - N/A   Overcast
4:30 AM 57.2 °F - 57.2 °F 100% 29.97 in 10.0 mi Calm Calm - N/A   Overcast
4:50 AM 57.2 °F - 55.4 °F 94% 29.97 in 8.0 mi Calm Calm - N/A   Overcast
5:10 AM 55.4 °F - 55.4 °F 100% 29.97 in 4.0 mi Calm Calm - N/A   Overcast
5:30 AM 55.4 °F - 55.4 °F 100% 29.97 in 2.5 mi Calm Calm - 0.01 in   Overcast
5:50 AM 55.4 °F - 55.4 °F 100% 29.97 in 1.0 mi Calm Calm - 0.03 in   Overcast
6:10 AM 55.4 °F - 55.4 °F 100% 29.99 in 0.8 mi Calm Calm - 0.03 in   Overcast
6:30 AM 55.4 °F - 55.4 °F 100% 29.98 in 1.0 mi Calm Calm - 0.07 in   Overcast
6:50 AM 55.4 °F - 55.4 °F 100% 29.98 in 0.8 mi Calm Calm - 0.11 in   Overcast
7:10 AM 55.4 °F - 55.4 °F 100% 29.97 in 0.5 mi Calm Calm - 0.02 in   Overcast
7:30 AM 55.4 °F - 55.4 °F 100% 29.97 in 0.5 mi Calm Calm - 0.06 in   Overcast
7:50 AM 55.4 °F - 55.4 °F 100% 29.97 in 0.8 mi Calm Calm - 0.09 in   Overcast
8:10 AM 55.4 °F - 55.4 °F 100% 29.98 in 1.0 mi Calm Calm - 0.01 in   Overcast
8:30 AM 55.4 °F - 55.4 °F 100% 29.97 in 0.5 mi Calm Calm - 0.06 in   Overcast
8:50 AM 57.2 °F - 57.2 °F 100% 29.93 in 1.8 mi SE 6.9 mph - 0.08 in   Overcast
9:10 AM 57.2 °F - 57.2 °F 100% 29.95 in 7.0 mi Calm Calm - N/A   Mostly Cloudy
9:30 AM 57.2 °F - 57.2 °F 100% 29.97 in 7.0 mi WSW 3.5 mph - 0.01 in   Overcast
9:50 AM 57.2 °F - 57.2 °F 100% 29.96 in 7.0 mi Calm Calm - 0.01 in   Overcast
10:10 AM 57.2 °F - 57.2 °F 100% 29.98 in 2.5 mi Calm Calm - 0.07 in   Overcast
10:30 AM 57.2 °F - 57.2 °F 100% 29.97 in 3.0 mi WNW 5.8 mph - 0.11 in   Overcast
10:50 AM 55.4 °F - 55.4 °F 100% 29.98 in 2.0 mi WSW 4.6 mph - 0.14 in   Overcast
11:10 AM 55.4 °F - 55.4 °F 100% 29.97 in 3.0 mi SW 3.5 mph - N/A   Overcast
11:30 AM 55.4 °F - 55.4 °F 100% 29.94 in 2.0 mi WSW 3.5 mph - 0.03 in   Overcast
11:50 AM 55.4 °F - 53.6 °F 94% 29.99 in 5.0 mi West 11.5 mph 18.4 mph 0.03 in   Overcast
12:10 PM 53.6 °F - 51.8 °F 94% 29.97 in 4.0 mi NW 5.8 mph - 0.01 in   Overcast
12:30 PM 53.6 °F - 50.0 °F 88% 29.98 in 10.0 mi WNW 5.8 mph - 0.01 in   Overcast
12:50 PM 53.6 °F - 50.0 °F 88% 29.96 in 5.0 mi NW 3.5 mph - 0.04 in   Overcast
1:10 PM 53.6 °F - 50.0 °F 88% 29.97 in 10.0 mi West 4.6 mph - N/A   Overcast
1:30 PM 53.6 °F - 50.0 °F 88% 29.96 in 10.0 mi WNW 4.6 mph - N/A   Overcast
1:50 PM 51.8 °F - 50.0 °F 94% 29.97 in 7.0 mi West 4.6 mph - 0.01 in   Overcast
2:10 PM 51.8 °F - 50.0 °F 94% 29.99 in 10.0 mi West 5.8 mph - N/A   Overcast
2:35 PM 51.8 °F - 48.2 °F 88% 30.01 in 5.0 mi WSW 5.8 mph - 0.01 in   Overcast
2:50 PM 50.0 °F - 48.2 °F 94% 30.01 in 5.0 mi WSW 4.6 mph - 0.02 in   Overcast
3:10 PM 50.0 °F - 50.0 °F 100% 30.02 in 4.0 mi WSW 4.6 mph - 0.01 in   Mostly Cloudy
3:30 PM 50.0 °F - 48.2 °F 94% 30.03 in 4.0 mi West 4.6 mph - 0.03 in   Mostly Cloudy
3:50 PM 50.0 °F - 48.2 °F 94% 30.04 in 8.0 mi WSW 3.5 mph - 0.03 in   Overcast
4:10 PM 50.0 °F - 48.2 °F 94% 30.06 in 5.0 mi WSW 5.8 mph - N/A   Overcast
4:30 PM 50.0 °F - 46.4 °F 87% 30.06 in 10.0 mi West 4.6 mph - 0.02 in   Overcast
4:50 PM 48.2 °F - 44.6 °F 87% 30.07 in 9.0 mi WSW 5.8 mph - 0.02 in   Overcast
5:10 PM 48.2 °F - 42.8 °F 82% 30.06 in 10.0 mi WSW 5.8 mph - 0.01 in   Overcast
5:30 PM 46.4 °F 45.2 °F 44.6 °F 93% 30.07 in 10.0 mi WSW 3.5 mph - 0.01 in   Overcast
5:50 PM 48.2 °F - 41.0 °F 76% 30.08 in 10.0 mi West 6.9 mph 16.1 mph 0.01 in   Overcast
6:10 PM 46.4 °F 42.9 °F 41.0 °F 81% 30.10 in 10.0 mi WSW 6.9 mph - N/A   Mostly Cloudy
6:30 PM 46.4 °F 40.7 °F 39.2 °F 76% 30.11 in 10.0 mi West 12.7 mph 20.7 mph N/A   Overcast
6:50 PM 44.6 °F 39.2 °F 37.4 °F 76% 30.11 in 10.0 mi West 10.4 mph 17.3 mph N/A   Overcast
7:15 PM 44.6 °F 39.7 °F 35.6 °F 71% 30.12 in 10.0 mi West 9.2 mph 16.1 mph N/A   Overcast
7:30 PM 44.6 °F 40.7 °F 35.6 °F 71% 30.14 in 10.0 mi West 6.9 mph - N/A   Overcast
7:50 PM 44.6 °F 40.2 °F 35.6 °F 71% 30.14 in 10.0 mi West 8.1 mph - N/A   Overcast
8:10 PM 42.8 °F 38.6 °F 33.8 °F 70% 30.15 in 10.0 mi West 6.9 mph - N/A   Overcast
8:30 PM 41.0 °F 35.8 °F 33.8 °F 76% 30.14 in 10.0 mi West 8.1 mph - N/A   Overcast
8:50 PM 41.0 °F 36.4 °F 32.0 °F 70% 30.14 in 10.0 mi West 6.9 mph - N/A   Overcast
9:10 PM 41.0 °F 36.4 °F 35.6 °F 81% 30.15 in 10.0 mi NW 6.9 mph - N/A   Overcast
9:35 PM 41.0 °F 35.8 °F 33.8 °F 76% 30.16 in 10.0 mi WNW 8.1 mph - N/A   Overcast
9:50 PM 41.0 °F 35.2 °F 32.0 °F 70% 30.15 in 10.0 mi WNW 9.2 mph 16.1 mph N/A   Overcast
10:10 PM 39.2 °F 33.6 °F 32.0 °F 75% 30.16 in 10.0 mi WNW 8.1 mph 17.3 mph N/A   Mostly Cloudy
10:30 PM 39.2 °F 33.6 °F 32.0 °F 75% 30.16 in 10.0 mi WNW 8.1 mph - N/A   Overcast
10:50 PM 39.2 °F 35.9 °F 32.0 °F 75% 30.17 in 10.0 mi NW 4.6 mph - N/A   Overcast
11:10 PM 39.2 °F 32.5 °F 28.4 °F 65% 30.18 in 10.0 mi NNW 10.4 mph 16.1 mph N/A   Overcast
11:30 PM 39.2 °F 34.2 °F 28.4 °F 65% 30.18 in 10.0 mi North 6.9 mph - N/A   Mostly Cloudy
11:50 PM 37.4 °F 29.8 °F 28.4 °F 70% 30.18 in 10.0 mi North 11.5 mph - N/A   Scattered Clouds